createdAt,value
2023-04-24T00:04:00.501Z,97.92
2023-04-24T00:08:02.887Z,97.94
2023-04-24T00:12:05.581Z,99.08
2023-04-24T00:16:07.637Z,99.74
2023-04-24T00:20:11.288Z,100.00
2023-04-24T00:24:13.439Z,100.00
2023-04-24T00:28:15.567Z,100.00
2023-04-24T00:32:18.969Z,100.00
2023-04-24T00:36:21.658Z,100.00
2023-04-24T00:40:23.788Z,100.00
2023-04-24T00:44:26.154Z,100.00
2023-04-24T00:48:28.872Z,100.00
2023-04-24T00:52:33.124Z,100.00
2023-04-24T00:56:35.463Z,100.00
2023-04-24T01:00:37.943Z,100.00
2023-04-24T01:04:40.490Z,100.00
2023-04-24T01:08:42.921Z,100.00
2023-04-24T01:12:44.974Z,100.00
2023-04-24T01:16:48.264Z,100.00
2023-04-24T01:20:54.061Z,100.00
2023-04-24T01:24:56.226Z,100.00
2023-04-24T01:28:58.400Z,100.00
2023-04-24T01:33:00.917Z,100.00
2023-04-24T01:37:03.144Z,100.00
2023-04-24T01:41:05.527Z,100.00
2023-04-24T01:45:11.071Z,100.00
2023-04-24T01:49:13.215Z,100.00
2023-04-24T01:53:15.467Z,100.00
2023-04-24T01:57:18.416Z,100.00
2023-04-24T02:01:21.915Z,100.00
2023-04-24T02:05:24.184Z,100.00
2023-04-24T02:09:26.322Z,100.00
2023-04-24T02:13:28.979Z,100.00
2023-04-24T02:17:31.803Z,100.00
2023-04-24T02:21:34.007Z,100.00
2023-04-24T02:25:37.107Z,100.00
2023-04-24T02:29:39.138Z,100.00
2023-04-24T02:33:41.643Z,100.00
2023-04-24T02:37:43.736Z,100.00
2023-04-24T02:41:47.985Z,100.00
2023-04-24T02:45:52.256Z,100.00
2023-04-24T02:49:54.376Z,100.00
2023-04-24T02:53:56.694Z,100.00
2023-04-24T02:57:58.748Z,100.00
2023-04-24T03:02:01.056Z,100.00
2023-04-24T03:06:03.464Z,98.51
2023-04-24T03:10:06.856Z,97.58
2023-04-24T03:14:09.068Z,95.62
2023-04-24T03:18:13.667Z,92.92
2023-04-24T03:22:15.934Z,90.50
2023-04-24T03:26:18.577Z,90.08
2023-04-24T03:30:34.383Z,89.05
2023-04-24T03:34:37.349Z,88.79
2023-04-24T03:38:39.707Z,88.70
2023-04-24T03:42:58.552Z,88.27
2023-04-24T03:47:01.607Z,87.49
2023-04-24T03:51:04.660Z,87.56
2023-04-24T03:55:08.293Z,87.33
2023-04-24T03:59:15.832Z,87.10
2023-04-24T04:03:22.306Z,87.11
2023-04-24T04:07:25.407Z,86.65
2023-04-24T04:11:27.965Z,85.76
2023-04-24T04:15:29.963Z,84.25
2023-04-24T04:19:32.039Z,83.63
2023-04-24T04:23:34.249Z,83.45
2023-04-24T04:28:00.485Z,84.25
2023-04-24T04:32:04.010Z,84.51
2023-04-24T04:36:06.859Z,85.19
2023-04-24T04:40:13.352Z,85.05
2023-04-24T04:44:25.471Z,84.79
2023-04-24T04:48:28.509Z,84.83
2023-04-24T04:52:32.495Z,83.87
2023-04-24T04:56:44.326Z,81.38
2023-04-24T05:00:47.164Z,72.90
2023-04-24T05:05:03.597Z,72.54
2023-04-24T05:09:06.143Z,71.74
2023-04-24T05:13:22.866Z,72.81
2023-04-24T05:17:31.599Z,73.14
2023-04-24T05:21:34.882Z,75.83
2023-04-24T05:25:36.999Z,75.60
2023-04-24T05:29:44.586Z,75.57
2023-04-24T05:33:46.883Z,72.94
2023-04-24T05:37:49.287Z,65.80
2023-04-24T05:41:52.886Z,59.73
2023-04-24T05:45:54.943Z,57.26
2023-04-24T05:49:57.037Z,47.04
2023-04-24T05:53:59.273Z,42.75
2023-04-24T05:58:01.987Z,44.75
2023-04-24T06:02:05.270Z,51.63
2023-04-24T06:06:08.602Z,54.49
2023-04-24T06:10:11.680Z,53.60
2023-04-24T06:14:17.445Z,54.83
2023-04-24T06:18:37.812Z,57.43
2023-04-24T06:22:40.980Z,58.69
2023-04-24T06:26:43.101Z,60.25
2023-04-24T06:30:45.218Z,61.34
2023-04-24T06:34:47.603Z,61.98
2023-04-24T06:38:49.748Z,61.83
2023-04-24T06:42:51.786Z,62.58
2023-04-24T06:46:53.782Z,57.14
2023-04-24T06:50:55.936Z,49.45
2023-04-24T06:55:02.874Z,49.96
2023-04-24T06:59:04.896Z,50.65
2023-04-24T07:03:07.149Z,49.10
2023-04-24T07:07:10.528Z,47.90
2023-04-24T07:11:12.644Z,49.96
2023-04-24T07:15:14.791Z,53.20
2023-04-24T07:19:16.880Z,54.44
2023-04-24T07:23:19.279Z,56.68
2023-04-24T07:27:21.544Z,57.37
2023-04-24T07:31:23.609Z,59.39
2023-04-24T07:35:26.669Z,60.22
2023-04-24T07:39:30.147Z,59.01
2023-04-24T07:43:32.166Z,58.58
2023-04-24T07:47:34.568Z,59.14
2023-04-24T07:51:39.259Z,59.12
2023-04-24T07:55:41.327Z,57.59
2023-04-24T07:59:43.634Z,57.22
2023-04-24T08:03:46.184Z,57.54
2023-04-24T08:07:51.213Z,56.46
2023-04-24T08:11:54.183Z,56.63
2023-04-24T08:15:57.776Z,55.91
2023-04-24T08:20:02.519Z,56.20
2023-04-24T08:24:08.407Z,55.54
2023-04-24T08:28:11.721Z,54.91
2023-04-24T08:32:13.831Z,54.70
2023-04-24T08:36:16.145Z,53.91
2023-04-24T08:40:18.198Z,54.46
2023-04-24T08:44:20.959Z,54.94
2023-04-24T08:48:31.385Z,55.93
2023-04-24T08:52:35.445Z,55.69
2023-04-24T08:56:40.174Z,57.14
2023-04-24T09:00:47.638Z,56.52
2023-04-24T09:04:50.814Z,56.49
2023-04-24T09:08:55.168Z,56.18
2023-04-24T09:12:59.081Z,57.15
2023-04-24T09:17:01.210Z,57.48
2023-04-24T09:21:12.545Z,57.33
2023-04-24T09:25:14.840Z,57.67
2023-04-24T09:29:17.941Z,57.91
2023-04-24T09:33:19.958Z,58.10
2023-04-24T09:37:30.074Z,57.69
2023-04-24T09:41:33.843Z,58.08
2023-04-24T09:45:40.699Z,58.47
2023-04-24T09:49:44.898Z,58.31
2023-04-24T09:53:48.022Z,57.65
2023-04-24T09:58:01.441Z,59.14
2023-04-24T10:02:03.987Z,58.88
2023-04-24T10:06:12.295Z,59.33
2023-04-24T10:10:14.525Z,59.02
2023-04-24T10:14:21.562Z,60.12
2023-04-24T10:18:24.998Z,61.85
2023-04-24T10:22:27.975Z,61.61
2023-04-24T10:26:30.601Z,61.15
2023-04-24T10:30:38.382Z,60.65
2023-04-24T10:34:40.422Z,58.65
2023-04-24T10:38:44.582Z,58.92
2023-04-24T10:42:53.589Z,59.67
2023-04-24T10:46:57.269Z,73.61
2023-04-24T10:50:59.659Z,59.06
2023-04-24T10:55:02.736Z,58.31
2023-04-24T10:59:10.665Z,61.58
2023-04-24T11:03:27.848Z,63.82
2023-04-24T11:07:29.981Z,66.34
2023-04-24T11:11:32.126Z,67.06
2023-04-24T11:15:34.261Z,68.29
2023-04-24T11:19:37.655Z,72.24
2023-04-24T11:23:40.725Z,74.47
2023-04-24T11:27:49.789Z,74.65
2023-04-24T11:31:52.522Z,71.49
2023-04-24T11:35:54.766Z,73.56
2023-04-24T11:39:59.667Z,73.63
2023-04-24T11:44:02.211Z,74.75
2023-04-24T11:48:04.728Z,77.88
2023-04-24T11:52:07.621Z,79.97
2023-04-24T11:56:10.692Z,80.29
2023-04-24T12:00:24.310Z,75.66
2023-04-24T12:04:26.515Z,70.50
2023-04-24T12:08:29.868Z,69.67
2023-04-24T12:12:31.979Z,67.63
2023-04-24T12:16:34.211Z,67.92
2023-04-24T12:20:36.549Z,67.12
2023-04-24T12:24:57.682Z,64.08
2023-04-24T12:29:04.169Z,63.27
2023-04-24T12:33:06.379Z,68.93
2023-04-24T12:37:14.558Z,65.39
2023-04-24T12:41:16.610Z,65.34
2023-04-24T12:45:20.213Z,72.37
2023-04-24T12:49:22.267Z,77.18
2023-04-24T12:53:24.324Z,79.89
2023-04-24T12:57:27.889Z,82.41
2023-04-24T13:01:29.927Z,82.34
2023-04-24T13:05:32.052Z,81.58
2023-04-24T13:09:35.696Z,80.82
2023-04-24T13:13:38.046Z,80.31
2023-04-24T13:17:40.232Z,79.74
2023-04-24T13:21:42.278Z,80.85
2023-04-24T13:25:44.529Z,78.76
2023-04-24T13:29:46.861Z,74.84
2023-04-24T13:33:49.115Z,73.54
2023-04-24T13:37:51.109Z,73.47
2023-04-24T13:41:53.845Z,74.27
2023-04-24T13:45:55.933Z,74.95
2023-04-24T13:49:58.089Z,75.15
2023-04-24T13:54:00.845Z,71.01
2023-04-24T13:58:03.469Z,68.36
2023-04-24T14:02:05.954Z,67.83
2023-04-24T14:06:08.298Z,66.49
2023-04-24T14:10:11.119Z,66.46
2023-04-24T14:14:13.193Z,64.23
2023-04-24T14:18:15.220Z,63.31
2023-04-24T14:22:17.605Z,60.40
2023-04-24T14:26:20.666Z,59.79
2023-04-24T14:30:22.795Z,59.85
2023-04-24T14:34:24.866Z,60.26
2023-04-24T14:38:27.010Z,60.02
2023-04-24T14:42:29.739Z,61.85
2023-04-24T14:46:32.211Z,65.77
2023-04-24T14:50:34.687Z,68.38
2023-04-24T14:54:37.075Z,68.42
2023-04-24T14:58:39.154Z,69.75
2023-04-24T15:02:43.018Z,68.58
2023-04-24T15:06:45.375Z,69.85
2023-04-24T15:10:47.823Z,69.50
2023-04-24T15:14:49.841Z,66.72
2023-04-24T15:18:51.851Z,66.58
2023-04-24T15:22:53.901Z,66.53
2023-04-24T15:26:57.464Z,65.97
2023-04-24T15:31:00.835Z,65.05
2023-04-24T15:35:08.542Z,64.76
2023-04-24T15:39:12.504Z,63.58
2023-04-24T15:43:14.910Z,64.00
2023-04-24T15:47:16.952Z,63.47
2023-04-24T15:51:18.965Z,62.54
2023-04-24T15:55:21.258Z,62.00
2023-04-24T15:59:23.932Z,60.05
2023-04-24T16:03:26.261Z,60.18
2023-04-24T16:07:28.326Z,58.80
2023-04-24T16:11:32.653Z,58.09
2023-04-24T16:15:36.409Z,59.25
2023-04-24T16:19:38.542Z,59.51
2023-04-24T16:23:40.708Z,59.95
2023-04-24T16:27:43.343Z,60.33
2023-04-24T16:31:45.660Z,60.55
2023-04-24T16:35:47.825Z,59.86
2023-04-24T16:39:49.837Z,60.58
2023-04-24T16:43:51.855Z,60.21
2023-04-24T16:47:53.924Z,61.11
2023-04-24T16:51:56.126Z,62.42
2023-04-24T16:55:58.251Z,67.83
2023-04-24T17:00:00.290Z,70.02
2023-04-24T17:04:02.607Z,72.63
2023-04-24T17:08:04.792Z,73.75
2023-04-24T17:12:08.209Z,73.24
2023-04-24T17:16:10.925Z,74.93
2023-04-24T17:20:22.064Z,77.26
2023-04-24T17:24:25.871Z,77.49
2023-04-24T17:28:31.141Z,76.47
2023-04-24T17:32:33.252Z,78.15
2023-04-24T17:36:35.292Z,79.37
2023-04-24T17:40:38.413Z,80.30
2023-04-24T17:44:40.471Z,80.71
2023-04-24T17:48:42.494Z,80.55
2023-04-24T17:52:44.512Z,81.15
2023-04-24T17:56:46.655Z,81.17
2023-04-24T18:00:48.664Z,81.54
2023-04-24T18:04:52.870Z,82.84
2023-04-24T18:08:56.460Z,82.79
2023-04-24T18:12:59.116Z,83.53
2023-04-24T18:17:01.124Z,82.56
2023-04-24T18:21:03.619Z,81.62
2023-04-24T18:25:06.521Z,81.19
2023-04-24T18:29:08.541Z,79.42
2023-04-24T18:33:11.001Z,79.41
2023-04-24T18:37:13.045Z,80.17
2023-04-24T18:41:15.670Z,80.11
2023-04-24T18:45:17.730Z,79.55
2023-04-24T18:49:19.872Z,79.91
2023-04-24T18:53:21.909Z,79.98
2023-04-24T18:57:23.993Z,80.18
2023-04-24T19:01:27.220Z,81.05
2023-04-24T19:05:29.327Z,82.00
2023-04-24T19:09:31.331Z,83.45
2023-04-24T19:13:34.445Z,83.19
2023-04-24T19:17:36.451Z,83.23
2023-04-24T19:21:38.476Z,83.38
2023-04-24T19:25:40.574Z,83.96
2023-04-24T19:29:42.913Z,84.63
2023-04-24T19:33:48.293Z,84.42
2023-04-24T19:37:50.339Z,85.55
2023-04-24T19:41:52.380Z,87.03
2023-04-24T19:45:54.516Z,88.75
2023-04-24T19:49:56.632Z,90.09
2023-04-24T19:53:58.641Z,89.77
2023-04-24T19:58:00.915Z,89.91
2023-04-24T20:02:02.949Z,89.91
2023-04-24T20:06:05.098Z,87.40
2023-04-24T20:10:07.621Z,88.16
2023-04-24T20:14:09.696Z,89.04
2023-04-24T20:18:11.708Z,88.50
2023-04-24T20:22:13.809Z,88.00
2023-04-24T20:26:15.824Z,88.36
2023-04-24T20:30:17.867Z,88.50
2023-04-24T20:34:20.946Z,89.42
2023-04-24T20:38:24.301Z,89.30
2023-04-24T20:42:26.321Z,90.53
2023-04-24T20:46:28.556Z,90.61
2023-04-24T20:50:32.946Z,91.90
2023-04-24T20:54:35.039Z,93.08
2023-04-24T20:58:37.704Z,93.97
2023-04-24T21:02:39.862Z,94.50
2023-04-24T21:06:42.101Z,94.73
2023-04-24T21:10:44.204Z,94.42
2023-04-24T21:14:46.250Z,94.04
2023-04-24T21:18:48.250Z,94.49
2023-04-24T21:22:50.332Z,93.82
2023-04-24T21:26:52.400Z,93.26
2023-04-24T21:30:54.472Z,92.51
2023-04-24T21:34:58.889Z,92.31
2023-04-24T21:39:00.960Z,92.20
2023-04-24T21:43:03.660Z,92.03
2023-04-24T21:47:05.679Z,92.09
2023-04-24T21:51:07.799Z,91.56
2023-04-24T21:55:09.854Z,91.58
2023-04-24T21:59:11.983Z,91.85
2023-04-24T22:03:14.434Z,91.67
2023-04-24T22:07:16.614Z,91.97
2023-04-24T22:11:26.685Z,92.93
2023-04-24T22:15:29.409Z,93.20
2023-04-24T22:19:31.490Z,94.09
2023-04-24T22:23:33.602Z,93.86
2023-04-24T22:27:35.872Z,94.31
2023-04-24T22:31:38.177Z,93.71
2023-04-24T22:35:40.270Z,92.96
2023-04-24T22:39:42.330Z,94.61
2023-04-24T22:43:44.887Z,95.30
2023-04-24T22:47:47.126Z,94.11
2023-04-24T22:51:49.154Z,94.94
2023-04-24T22:55:51.257Z,96.14
2023-04-24T22:59:54.444Z,96.79
2023-04-24T23:03:56.621Z,96.71
2023-04-24T23:07:58.673Z,98.18
2023-04-24T23:12:01.241Z,98.91
2023-04-24T23:16:05.064Z,98.92
2023-04-24T23:20:07.906Z,98.83
2023-04-24T23:24:09.950Z,99.25
2023-04-24T23:28:12.006Z,99.90
2023-04-24T23:32:14.157Z,100.00
2023-04-24T23:36:16.939Z,100.00
2023-04-24T23:40:18.963Z,99.91
2023-04-24T23:44:21.030Z,99.89
2023-04-24T23:48:23.490Z,99.16
2023-04-24T23:52:25.678Z,99.09
2023-04-24T23:56:29.199Z,98.63
